DLA856 LGKR-LGSK
Flight info
| Callsign | DLA856 |
|---|---|
| Flight time | 0h 38m |
| Altitude | 25000 |
| Route | PARAX G12 YNN/N0388F230 V651 AGH W58 SKP |
| Aircraft | SU95/M-SDE3GILORVW/S |
Departure
| Time | 2026-05-05 19:27 |
|---|---|
| Airport | Corfu Ioannis Kapodistrias International Airport (LGKR) |
Arrival
| Time | 2026-05-05 20:05 |
|---|---|
| Airport | Skiathos Island National Airport (LGSK) |
| Time | Latitude | Longitude | Altitude | Speed | Heading |
|---|---|---|---|---|---|
| 2026-05-05 18:57 | 39.60797 | 19.91243 | 12 ft | 0 kts | 78° |
| 2026-05-05 19:14 | 39.60797 | 19.91244 | 14 ft | 1 kts | 78° |
| 2026-05-05 19:15 | 39.60795 | 19.91234 | 13 ft | 1 kts | 67° |
| 2026-05-05 19:15 | 39.60793 | 19.91229 | 13 ft | 1 kts | 59° |
| 2026-05-05 19:15 | 39.60789 | 19.91222 | 13 ft | 1 kts | 45° |
| 2026-05-05 19:15 | 39.60783 | 19.91216 | 12 ft | 1 kts | 31° |
| 2026-05-05 19:16 | 39.60774 | 19.91211 | 13 ft | 2 kts | 19° |
| 2026-05-05 19:16 | 39.60762 | 19.91207 | 13 ft | 2 kts | 11° |
| 2026-05-05 19:16 | 39.60750 | 19.91206 | 12 ft | 2 kts | 355° |
| 2026-05-05 19:16 | 39.60744 | 19.91207 | 15 ft | 0 kts | 351° |
| 2026-05-05 19:20 | 39.60794 | 19.91279 | 12 ft | 8 kts | 70° |
| 2026-05-05 19:20 | 39.60806 | 19.91293 | 12 ft | 2 kts | 345° |
| 2026-05-05 19:20 | 39.60847 | 19.91275 | 12 ft | 6 kts | 314° |
| 2026-05-05 19:21 | 39.60853 | 19.91239 | 12 ft | 3 kts | 270° |
| 2026-05-05 19:21 | 39.60853 | 19.91215 | 12 ft | 2 kts | 273° |
| 2026-05-05 19:21 | 39.60866 | 19.91182 | 12 ft | 5 kts | 317° |
| 2026-05-05 19:21 | 39.60895 | 19.91165 | 12 ft | 5 kts | 345° |
| 2026-05-05 19:22 | 39.60932 | 19.91152 | 12 ft | 6 kts | 345° |
| 2026-05-05 19:22 | 39.60979 | 19.91138 | 13 ft | 8 kts | 348° |
| 2026-05-05 19:22 | 39.61035 | 19.91122 | 12 ft | 9 kts | 348° |
| 2026-05-05 19:22 | 39.61098 | 19.91105 | 12 ft | 10 kts | 348° |
| 2026-05-05 19:23 | 39.61169 | 19.91090 | 12 ft | 11 kts | 355° |
| 2026-05-05 19:23 | 39.61212 | 19.91060 | 13 ft | 0 kts | 293° |
| 2026-05-05 19:25 | 39.61226 | 19.91018 | 13 ft | 12 kts | 293° |
| 2026-05-05 19:25 | 39.61187 | 19.90958 | 13 ft | 12 kts | 172° |
| 2026-05-05 19:25 | 39.61175 | 19.90961 | 14 ft | 0 kts | 171° |
| 2026-05-05 19:26 | 39.61007 | 19.91002 | 11 ft | 57 kts | 169° |
| 2026-05-05 19:26 | 39.60415 | 19.91153 | 13 ft | 114 kts | 168° |
| 2026-05-05 19:26 | 39.59477 | 19.91401 | 34 ft | 157 kts | 168° |
| 2026-05-05 19:27 | 39.58356 | 19.91684 | 359 ft | 169 kts | 169° |
| 2026-05-05 19:27 | 39.57186 | 19.91969 | 793 ft | 178 kts | 166° |
| 2026-05-05 19:27 | 39.56150 | 19.92846 | 1338 ft | 184 kts | 126° |
| 2026-05-05 19:27 | 39.55503 | 19.94342 | 1973 ft | 196 kts | 117° |
| 2026-05-05 19:28 | 39.54786 | 19.95928 | 2596 ft | 212 kts | 125° |
| 2026-05-05 19:28 | 39.53811 | 19.97459 | 3227 ft | 228 kts | 134° |
| 2026-05-05 19:28 | 39.52630 | 19.98896 | 3811 ft | 245 kts | 140° |
| 2026-05-05 19:28 | 39.51258 | 20.00354 | 4431 ft | 265 kts | 142° |
| 2026-05-05 19:29 | 39.49779 | 20.01850 | 4911 ft | 273 kts | 143° |
| 2026-05-05 19:29 | 39.48275 | 20.03358 | 5000 ft | 273 kts | 143° |
| 2026-05-05 19:29 | 39.46774 | 20.04867 | 5002 ft | 273 kts | 143° |
| 2026-05-05 19:29 | 39.45274 | 20.06384 | 5002 ft | 273 kts | 142° |
| 2026-05-05 19:30 | 39.43786 | 20.07912 | 5002 ft | 273 kts | 139° |
| 2026-05-05 19:30 | 39.42774 | 20.09958 | 5002 ft | 274 kts | 104° |
| 2026-05-05 19:30 | 39.42810 | 20.12398 | 5004 ft | 275 kts | 70° |
| 2026-05-05 19:30 | 39.43866 | 20.14379 | 5004 ft | 274 kts | 37° |
| 2026-05-05 19:31 | 39.45508 | 20.15620 | 5004 ft | 274 kts | 27° |
| 2026-05-05 19:31 | 39.47072 | 20.16999 | 5147 ft | 273 kts | 45° |
| 2026-05-05 19:31 | 39.48172 | 20.19002 | 5624 ft | 275 kts | 59° |
| 2026-05-05 19:31 | 39.49107 | 20.21172 | 6300 ft | 277 kts | 62° |
| 2026-05-05 19:32 | 39.49964 | 20.23413 | 6964 ft | 279 kts | 64° |
| 2026-05-05 19:32 | 39.50508 | 20.24929 | 7401 ft | 281 kts | 65° |
| 2026-05-05 19:32 | 39.51583 | 20.28037 | 8299 ft | 285 kts | 65° |
| 2026-05-05 19:32 | 39.52114 | 20.29593 | 8756 ft | 286 kts | 65° |
| 2026-05-05 19:33 | 39.52925 | 20.31969 | 9454 ft | 289 kts | 65° |
| 2026-05-05 19:33 | 39.53746 | 20.34369 | 10149 ft | 292 kts | 65° |
| 2026-05-05 19:33 | 39.54565 | 20.36761 | 10790 ft | 296 kts | 65° |
| 2026-05-05 19:33 | 39.55416 | 20.39245 | 11467 ft | 300 kts | 65° |
| 2026-05-05 19:34 | 39.56271 | 20.41743 | 12152 ft | 309 kts | 65° |
| 2026-05-05 19:34 | 39.57152 | 20.44312 | 12830 ft | 321 kts | 65° |
| 2026-05-05 19:34 | 39.58076 | 20.47010 | 13543 ft | 333 kts | 65° |
| 2026-05-05 19:35 | 39.60015 | 20.52683 | 14865 ft | 354 kts | 64° |
| 2026-05-05 19:35 | 39.61030 | 20.55657 | 15528 ft | 363 kts | 64° |
| 2026-05-05 19:35 | 39.62051 | 20.58656 | 16198 ft | 371 kts | 64° |
| 2026-05-05 19:35 | 39.63105 | 20.61752 | 16888 ft | 379 kts | 64° |
| 2026-05-05 19:36 | 39.64177 | 20.64909 | 17596 ft | 385 kts | 63° |
| 2026-05-05 19:36 | 39.65265 | 20.68115 | 18303 ft | 391 kts | 63° |
| 2026-05-05 19:36 | 39.66369 | 20.71370 | 18955 ft | 396 kts | 63° |
| 2026-05-05 19:36 | 39.67488 | 20.74675 | 19599 ft | 402 kts | 63° |
| 2026-05-05 19:37 | 39.68550 | 20.77845 | 20158 ft | 409 kts | 65° |
| 2026-05-05 19:37 | 39.69263 | 20.81487 | 20553 ft | 425 kts | 81° |
| 2026-05-05 19:37 | 39.69222 | 20.85359 | 20929 ft | 433 kts | 97° |
| 2026-05-05 19:37 | 39.68497 | 20.89176 | 21313 ft | 438 kts | 105° |
| 2026-05-05 19:38 | 39.67576 | 20.92969 | 21694 ft | 441 kts | 106° |
| 2026-05-05 19:38 | 39.66621 | 20.96779 | 22082 ft | 445 kts | 106° |
| 2026-05-05 19:38 | 39.65672 | 21.00614 | 22462 ft | 450 kts | 105° |
| 2026-05-05 19:38 | 39.64730 | 21.04496 | 22880 ft | 450 kts | 105° |
| 2026-05-05 19:39 | 39.63792 | 21.08410 | 23276 ft | 459 kts | 105° |
| 2026-05-05 19:39 | 39.62846 | 21.12379 | 23677 ft | 460 kts | 105° |
| 2026-05-05 19:39 | 39.61911 | 21.16301 | 24026 ft | 461 kts | 105° |
| 2026-05-05 19:39 | 39.60961 | 21.20278 | 24368 ft | 460 kts | 105° |
| 2026-05-05 19:40 | 39.60010 | 21.24264 | 24715 ft | 462 kts | 105° |
| 2026-05-05 19:40 | 39.59058 | 21.28241 | 25022 ft | 465 kts | 105° |
| 2026-05-05 19:40 | 39.58086 | 21.32304 | 25117 ft | 480 kts | 105° |
| 2026-05-05 19:40 | 39.57090 | 21.36455 | 25112 ft | 482 kts | 105° |
| 2026-05-05 19:41 | 39.56090 | 21.40606 | 25108 ft | 482 kts | 105° |
| 2026-05-05 19:41 | 39.55089 | 21.44751 | 25102 ft | 480 kts | 105° |
| 2026-05-05 19:41 | 39.54103 | 21.48830 | 25105 ft | 481 kts | 105° |
| 2026-05-05 19:41 | 39.53106 | 21.52953 | 25097 ft | 479 kts | 105° |
| 2026-05-05 19:42 | 39.52103 | 21.57090 | 25089 ft | 480 kts | 105° |
| 2026-05-05 19:42 | 39.51102 | 21.61213 | 25086 ft | 479 kts | 105° |
| 2026-05-05 19:42 | 39.50099 | 21.65337 | 25076 ft | 479 kts | 105° |
| 2026-05-05 19:42 | 39.49097 | 21.69454 | 25075 ft | 479 kts | 105° |
| 2026-05-05 19:43 | 39.48106 | 21.73513 | 25070 ft | 479 kts | 105° |
| 2026-05-05 19:43 | 39.47099 | 21.77633 | 25065 ft | 479 kts | 105° |
| 2026-05-05 19:43 | 39.46088 | 21.81760 | 25064 ft | 479 kts | 105° |
| 2026-05-05 19:43 | 39.45089 | 21.85833 | 25061 ft | 479 kts | 105° |
| 2026-05-05 19:44 | 39.44080 | 21.89941 | 25057 ft | 479 kts | 105° |
| 2026-05-05 19:44 | 39.43068 | 21.94052 | 25004 ft | 478 kts | 105° |
| 2026-05-05 19:44 | 39.42057 | 21.98154 | 24758 ft | 478 kts | 105° |
| 2026-05-05 19:44 | 39.41046 | 22.02245 | 24505 ft | 475 kts | 105° |
| 2026-05-05 19:45 | 39.40047 | 22.06280 | 24124 ft | 468 kts | 105° |
| 2026-05-05 19:45 | 39.39073 | 22.10209 | 23674 ft | 462 kts | 105° |
| 2026-05-05 19:45 | 39.38096 | 22.14144 | 23133 ft | 455 kts | 105° |
| 2026-05-05 19:45 | 39.37132 | 22.18017 | 22601 ft | 449 kts | 105° |
| 2026-05-05 19:46 | 39.36180 | 22.21841 | 22075 ft | 443 kts | 105° |
| 2026-05-05 19:46 | 39.35242 | 22.25603 | 21561 ft | 438 kts | 105° |
| 2026-05-05 19:46 | 39.34314 | 22.29320 | 21059 ft | 435 kts | 105° |
| 2026-05-05 19:46 | 39.33382 | 22.33046 | 20561 ft | 430 kts | 105° |
| 2026-05-05 19:47 | 39.32468 | 22.36698 | 20066 ft | 425 kts | 105° |
| 2026-05-05 19:47 | 39.31560 | 22.40321 | 19586 ft | 423 kts | 105° |
| 2026-05-05 19:47 | 39.30655 | 22.43924 | 19107 ft | 419 kts | 105° |
| 2026-05-05 19:47 | 39.29759 | 22.47479 | 18635 ft | 414 kts | 106° |
| 2026-05-05 19:48 | 39.28869 | 22.51005 | 18147 ft | 412 kts | 106° |
| 2026-05-05 19:48 | 39.27995 | 22.54467 | 17619 ft | 408 kts | 106° |
| 2026-05-05 19:48 | 39.27120 | 22.57925 | 17094 ft | 402 kts | 106° |
| 2026-05-05 19:48 | 39.26254 | 22.61344 | 16581 ft | 397 kts | 106° |
| 2026-05-05 19:49 | 39.25398 | 22.64720 | 16073 ft | 394 kts | 106° |
| 2026-05-05 19:49 | 39.24549 | 22.68067 | 15511 ft | 391 kts | 106° |
| 2026-05-05 19:49 | 39.23702 | 22.71403 | 14868 ft | 391 kts | 106° |
| 2026-05-05 19:49 | 39.22870 | 22.74674 | 14334 ft | 387 kts | 105° |
| 2026-05-05 19:50 | 39.22068 | 22.77976 | 13814 ft | 382 kts | 102° |
| 2026-05-05 19:50 | 39.21586 | 22.81318 | 13233 ft | 376 kts | 94° |
| 2026-05-05 19:50 | 39.21422 | 22.84658 | 12619 ft | 371 kts | 90° |
| 2026-05-05 19:50 | 39.21298 | 22.87966 | 12026 ft | 367 kts | 90° |
| 2026-05-05 19:51 | 39.21168 | 22.91240 | 11412 ft | 362 kts | 91° |
| 2026-05-05 19:51 | 39.21036 | 22.94430 | 11109 ft | 350 kts | 91° |
| 2026-05-05 19:51 | 39.20909 | 22.97458 | 11023 ft | 333 kts | 91° |
| 2026-05-05 19:51 | 39.20785 | 23.00363 | 10958 ft | 318 kts | 90° |
| 2026-05-05 19:52 | 39.20667 | 23.03178 | 10663 ft | 311 kts | 90° |
| 2026-05-05 19:52 | 39.20551 | 23.05966 | 10188 ft | 312 kts | 91° |
| 2026-05-05 19:52 | 39.20434 | 23.08763 | 9693 ft | 313 kts | 91° |
| 2026-05-05 19:52 | 39.20316 | 23.11559 | 9173 ft | 313 kts | 91° |
| 2026-05-05 19:53 | 39.20197 | 23.14364 | 8658 ft | 313 kts | 91° |
| 2026-05-05 19:53 | 39.20075 | 23.17178 | 8151 ft | 314 kts | 91° |
| 2026-05-05 19:53 | 39.19954 | 23.19978 | 7644 ft | 311 kts | 91° |
| 2026-05-05 19:53 | 39.19832 | 23.22754 | 7161 ft | 309 kts | 92° |
| 2026-05-05 19:54 | 39.19710 | 23.25506 | 6666 ft | 306 kts | 92° |
| 2026-05-05 19:54 | 39.19589 | 23.28242 | 6169 ft | 304 kts | 92° |
| 2026-05-05 19:54 | 39.19470 | 23.30919 | 5674 ft | 302 kts | 92° |
| 2026-05-05 19:54 | 39.19351 | 23.33619 | 5174 ft | 300 kts | 92° |
| 2026-05-05 19:55 | 39.19233 | 23.36304 | 4672 ft | 298 kts | 92° |
| 2026-05-05 19:55 | 39.19114 | 23.38963 | 4207 ft | 295 kts | 93° |
| 2026-05-05 19:55 | 39.18996 | 23.41549 | 4025 ft | 280 kts | 93° |
| 2026-05-05 19:55 | 39.18888 | 23.43978 | 3993 ft | 261 kts | 93° |
| 2026-05-05 19:56 | 39.18787 | 23.46222 | 4004 ft | 249 kts | 93° |
| 2026-05-05 19:56 | 39.18687 | 23.48414 | 3996 ft | 234 kts | 93° |
| 2026-05-05 19:56 | 39.18595 | 23.50426 | 3996 ft | 220 kts | 93° |
| 2026-05-05 19:56 | 39.18507 | 23.52326 | 3990 ft | 203 kts | 93° |
| 2026-05-05 19:57 | 39.18428 | 23.54074 | 3998 ft | 193 kts | 93° |
| 2026-05-05 19:57 | 39.18375 | 23.55246 | 4004 ft | 200 kts | 93° |
| 2026-05-05 19:57 | 39.18267 | 23.57627 | 3997 ft | 197 kts | 93° |
| 2026-05-05 19:57 | 39.18184 | 23.59399 | 3996 ft | 199 kts | 93° |
| 2026-05-05 19:58 | 39.18341 | 23.61147 | 4019 ft | 198 kts | 64° |
| 2026-05-05 19:58 | 39.19220 | 23.62412 | 4007 ft | 193 kts | 27° |
| 2026-05-05 19:58 | 39.20520 | 23.62773 | 4000 ft | 192 kts | 0° |
| 2026-05-05 19:58 | 39.21868 | 23.62796 | 3999 ft | 192 kts | 359° |
| 2026-05-05 19:59 | 39.23210 | 23.62808 | 4001 ft | 192 kts | 359° |
| 2026-05-05 19:59 | 39.24552 | 23.62821 | 3999 ft | 192 kts | 359° |
| 2026-05-05 19:59 | 39.25892 | 23.62835 | 4000 ft | 192 kts | 359° |
| 2026-05-05 19:59 | 39.27212 | 23.62850 | 4002 ft | 192 kts | 359° |
| 2026-05-05 20:00 | 39.28553 | 23.62866 | 4002 ft | 192 kts | 359° |
| 2026-05-05 20:00 | 39.29893 | 23.62886 | 4002 ft | 192 kts | 359° |
| 2026-05-05 20:00 | 39.31230 | 23.62907 | 4002 ft | 192 kts | 359° |
| 2026-05-05 20:00 | 39.32520 | 23.62578 | 4007 ft | 190 kts | 328° |
| 2026-05-05 20:01 | 39.33365 | 23.61321 | 4006 ft | 187 kts | 290° |
| 2026-05-05 20:01 | 39.33396 | 23.59698 | 4006 ft | 188 kts | 252° |
| 2026-05-05 20:01 | 39.32600 | 23.58375 | 4003 ft | 191 kts | 213° |
| 2026-05-05 20:01 | 39.31369 | 23.57708 | 4001 ft | 192 kts | 204° |
| 2026-05-05 20:02 | 39.30164 | 23.56968 | 3820 ft | 189 kts | 208° |
| 2026-05-05 20:02 | 39.29029 | 23.56150 | 3285 ft | 185 kts | 211° |
| 2026-05-05 20:02 | 39.27943 | 23.55267 | 2764 ft | 179 kts | 213° |
| 2026-05-05 20:02 | 39.26915 | 23.54452 | 2313 ft | 172 kts | 204° |
| 2026-05-05 20:03 | 39.25848 | 23.53848 | 1907 ft | 162 kts | 199° |
| 2026-05-05 20:03 | 39.24839 | 23.53323 | 1591 ft | 150 kts | 196° |
| 2026-05-05 20:03 | 39.23858 | 23.52998 | 1205 ft | 145 kts | 189° |
| 2026-05-05 20:03 | 39.22879 | 23.52724 | 791 ft | 143 kts | 193° |
| 2026-05-05 20:04 | 39.21951 | 23.52319 | 532 ft | 140 kts | 200° |
| 2026-05-05 20:04 | 39.21075 | 23.51830 | 427 ft | 135 kts | 202° |
| 2026-05-05 20:04 | 39.20183 | 23.51418 | 328 ft | 136 kts | 196° |
| 2026-05-05 20:04 | 39.19270 | 23.51066 | 216 ft | 137 kts | 198° |
| 2026-05-05 20:05 | 39.18377 | 23.50659 | 72 ft | 135 kts | 198° |
| 2026-05-05 20:05 | 39.17596 | 23.50315 | 34 ft | 83 kts | 199° |
| 2026-05-05 20:05 | 39.17320 | 23.50191 | 24 ft | 16 kts | 198° |
| 2026-05-05 20:05 | 39.17198 | 23.50141 | 19 ft | 20 kts | 199° |
| 2026-05-05 20:06 | 39.17071 | 23.50088 | 16 ft | 15 kts | 182° |
| 2026-05-05 20:06 | 39.17026 | 23.50049 | 13 ft | 4 kts | 316° |
| 2026-05-05 20:06 | 39.17073 | 23.50063 | 18 ft | 17 kts | 19° |
| 2026-05-05 20:06 | 39.17184 | 23.50116 | 20 ft | 17 kts | 20° |
| 2026-05-05 20:07 | 39.17292 | 23.50169 | 21 ft | 16 kts | 19° |
| 2026-05-05 20:07 | 39.17401 | 23.50218 | 27 ft | 19 kts | 19° |
| 2026-05-05 20:07 | 39.17509 | 23.50262 | 31 ft | 11 kts | 7° |
| 2026-05-05 20:07 | 39.17573 | 23.50217 | 32 ft | 11 kts | 326° |
| 2026-05-05 20:08 | 39.17639 | 23.50222 | 33 ft | 2 kts | 24° |
| 2026-05-05 20:08 | 39.17651 | 23.50224 | 33 ft | 2 kts | 7° |
| 2026-05-05 20:08 | 39.17664 | 23.50224 | 33 ft | 2 kts | 343° |
| 2026-05-05 20:08 | 39.17668 | 23.50218 | 33 ft | 0 kts | 299° |